Time;durP1;ratioP1;P1;durP2;ratioP2;P2;SDS_P1;SDS_P2;PMS_P1;PMS_P2;Temp;Humidity;BMP_temperature;BMP_pressure;BME280_temperature;BME280_humidity;BME280_pressure;Samples;Min_cycle;Max_cycle;Signal;HPM_P1;HPM_P2
2023/03/26 00:00:25;;;;;;;3.80;2.37;;;15.10;99.90;;;;;;10207378;29;20318;-90
2023/03/26 00:05:27;;;;;;;3.42;2.83;;;14.10;99.90;;;;;;10208095;29;20243;-88
2023/03/26 00:10:30;;;;;;;4.73;2.57;;;13.40;99.90;;;;;;10207645;29;20239;-89
2023/03/26 00:15:34;;;;;;;4.60;2.90;;;13.40;99.90;;;;;;10208985;29;20238;-90
2023/03/26 00:20:37;;;;;;;6.27;3.57;;;12.30;99.90;;;;;;10207375;29;20294;-91
2023/03/26 00:25:44;;;;;;;4.83;3.07;;;12.20;99.90;;;;;;10210231;29;20290;-91
2023/03/26 00:31:02;;;;;;;6.43;3.13;;;12.10;99.90;;;;;;10211452;29;20645;-90
2023/03/26 00:36:13;;;;;;;3.97;2.93;;;11.70;99.90;;;;;;10197053;29;20775;-91
2023/03/26 00:41:21;;;;;;;6.70;3.13;;;11.80;99.90;;;;;;10211524;29;20728;-90
2023/03/26 00:46:27;;;;;;;4.37;2.47;;;12.50;99.90;;;;;;10209731;29;20247;-91
2023/03/26 00:51:32;;;;;;;3.53;2.83;;;12.00;99.90;;;;;;10210664;29;20732;-90
2023/03/26 00:56:34;;;;;;;8.40;3.53;;;11.80;99.90;;;;;;10210233;29;20238;-91
2023/03/26 01:01:38;;;;;;;5.57;3.13;;;11.30;99.90;;;;;;10210286;29;20199;-91
2023/03/26 01:06:44;;;;;;;4.23;2.73;;;11.30;99.90;;;;;;10209650;29;20239;-90
2023/03/26 01:11:48;;;;;;;2.40;1.80;;;10.90;99.90;;;;;;10211753;29;20266;-91
2023/03/26 01:16:54;;;;;;;3.10;2.10;;;11.00;99.90;;;;;;10210128;29;20231;-91
2023/03/26 01:21:57;;;;;;;5.43;2.13;;;10.80;99.90;;;;;;10210299;29;20286;-91
2023/03/26 01:27:23;;;;;;;4.30;1.90;;;10.80;99.90;;;;;;10209672;29;20239;-90
2023/03/26 01:32:49;;;;;;;2.50;1.80;;;10.90;99.90;;;;;;10207235;29;20266;-91
2023/03/26 01:38:21;;;;;;;3.47;2.10;;;11.60;99.90;;;;;;10223379;29;20356;-91
2023/03/26 01:43:50;;;;;;;4.23;2.13;;;12.00;99.90;;;;;;10208697;29;20282;-91
2023/03/26 01:48:52;;;;;;;4.07;2.07;;;13.20;99.90;;;;;;10221752;28;20210;-90
2023/03/26 01:53:57;;;;;;;2.92;1.33;;;13.90;99.90;;;;;;10208088;29;20230;-91
2023/03/26 01:59:27;;;;;;;3.50;1.27;;;14.40;99.90;;;;;;10206746;29;20218;-91
2023/03/26 02:04:52;;;;;;;3.47;1.80;;;14.90;99.90;;;;;;10207058;29;20231;-90
2023/03/26 02:09:59;;;;;;;2.30;1.63;;;14.90;99.90;;;;;;10206495;29;20246;-91
2023/03/26 02:15:02;;;;;;;2.90;1.70;;;15.30;99.90;;;;;;10205266;29;20234;-91
2023/03/26 02:20:10;;;;;;;2.27;1.67;;;15.50;99.90;;;;;;10207977;29;20645;-90
2023/03/26 02:25:18;;;;;;;3.28;1.80;;;14.60;99.90;;;;;;10207171;29;20269;-91
2023/03/26 02:30:28;;;;;;;3.57;1.97;;;13.80;99.90;;;;;;10205089;29;20230;-90
2023/03/26 02:35:33;;;;;;;4.43;2.07;;;13.90;99.90;;;;;;10181854;29;20742;-91
2023/03/26 02:40:37;;;;;;;3.13;1.77;;;14.20;99.90;;;;;;10166377;29;20266;-90
2023/03/26 02:45:41;;;;;;;4.30;3.65;;;14.00;99.90;;;;;;10205038;29;20238;-91
2023/03/26 02:51:05;;;;;;;2.10;1.63;;;14.50;99.90;;;;;;10177598;29;20275;-91
2023/03/26 02:56:37;;;;;;;3.92;1.58;;;14.50;99.90;;;;;;10207316;29;20234;-90
2023/03/26 03:01:53;;;;;;;4.03;1.67;;;14.40;99.90;;;;;;10217508;29;20257;-89
2023/03/26 03:06:58;;;;;;;1.63;1.00;;;14.70;99.90;;;;;;10217585;29;20644;-89
2023/03/26 03:12:01;;;;;;;3.70;1.70;;;14.80;99.90;;;;;;10217570;29;20210;-89
2023/03/26 03:17:05;;;;;;;1.27;1.03;;;15.10;99.90;;;;;;10217074;29;20657;-90
2023/03/26 03:22:08;;;;;;;2.97;1.30;;;15.10;99.90;;;;;;10218840;29;20691;-89
2023/03/26 03:27:11;;;;;;;4.10;1.57;;;15.50;99.90;;;;;;10218350;29;20218;-89
2023/03/26 03:32:22;;;;;;;2.57;1.50;;;15.60;99.90;;;;;;10216279;29;20298;-90
2023/03/26 03:37:28;;;;;;;2.60;1.97;;;15.70;99.90;;;;;;10217691;29;20235;-90
2023/03/26 03:42:33;;;;;;;3.03;1.53;;;16.30;99.90;;;;;;10217691;29;20211;-89
2023/03/26 03:47:37;;;;;;;2.37;0.97;;;16.10;99.90;;;;;;10217779;29;20262;-90
2023/03/26 03:52:42;;;;;;;1.57;1.30;;;;;;;;;;10215856;29;20771;-89
2023/03/26 03:57:51;;;;;;;1.83;1.00;;;;;;;;;;10217302;29;20267;-89
2023/03/26 04:02:56;;;;;;;1.77;1.03;;;16.90;99.90;;;;;;10201111;29;20242;-89
2023/03/26 04:08:01;;;;;;;1.30;1.10;;;16.90;99.90;;;;;;10210653;29;20203;-90
2023/03/26 04:13:15;;;;;;;1.80;0.80;;;17.10;99.90;;;;;;10198930;29;20239;-89
2023/03/26 04:18:37;;;;;;;1.67;1.10;;;17.10;99.90;;;;;;10211412;29;20295;-89
2023/03/26 04:23:46;;;;;;;2.53;1.40;;;17.10;99.90;;;;;;10208074;29;20646;-90
2023/03/26 04:29:15;;;;;;;1.20;1.03;;;16.90;99.90;;;;;;10211065;29;20616;-90
2023/03/26 04:34:25;;;;;;;2.00;1.10;;;16.80;99.90;;;;;;10209341;29;20263;-90
2023/03/26 04:39:37;;;;;;;2.90;1.50;;;16.70;99.90;;;;;;10217423;29;20270;-89
2023/03/26 04:45:02;;;;;;;1.70;1.17;;;16.90;99.90;;;;;;10193074;29;20629;-90
2023/03/26 04:50:08;;;;;;;1.60;0.93;;;17.00;99.90;;;;;;10193077;29;20290;-90
2023/03/26 04:55:39;;;;;;;1.60;1.30;;;17.10;99.90;;;;;;10209100;29;20219;-90
2023/03/26 05:00:51;;;;;;;1.77;1.10;;;17.00;99.90;;;;;;10204384;29;20254;-89
2023/03/26 05:05:53;;;;;;;2.30;1.43;;;16.40;99.90;;;;;;10208404;29;20230;-90
2023/03/26 05:10:56;;;;;;;1.53;1.07;;;16.60;99.90;;;;;;10209347;29;20250;-91
2023/03/26 05:16:06;;;;;;;3.10;1.50;;;16.50;99.90;;;;;;10208084;29;20763;-89
2023/03/26 05:21:21;;;;;;;1.47;0.90;;;16.90;99.90;;;;;;10206871;29;20266;-90
2023/03/26 05:26:24;;;;;;;1.60;1.00;;;16.90;99.90;;;;;;10209910;29;20628;-90
2023/03/26 05:31:29;;;;;;;2.00;0.90;;;16.40;99.90;;;;;;10207927;29;20269;-90
2023/03/26 05:36:33;;;;;;;1.80;1.30;;;16.60;99.90;;;;;;10208075;29;20703;-90
2023/03/26 05:41:51;;;;;;;0.80;0.57;;;16.20;99.90;;;;;;10207913;29;20262;-89
2023/03/26 05:46:59;;;;;;;2.83;1.10;;;16.90;99.90;;;;;;10224023;29;20211;-90
2023/03/26 05:52:03;;;;;;;0.67;0.40;;;17.10;99.90;;;;;;10195150;29;20259;-90
2023/03/26 05:57:41;;;;;;;1.27;1.10;;;17.10;99.90;;;;;;10203943;29;20756;-89
2023/03/26 06:03:02;;;;;;;1.37;0.80;;;16.90;99.90;;;;;;10211331;29;20210;-90
2023/03/26 06:08:28;;;;;;;2.40;0.80;;;17.30;99.90;;;;;;10211948;29;20680;-90
2023/03/26 06:13:30;;;;;;;1.97;1.20;;;17.30;99.90;;;;;;10186679;29;20632;-90
2023/03/26 06:18:33;;;;;;;0.87;0.53;;;16.90;99.90;;;;;;10213755;29;20227;-90
2023/03/26 06:23:55;;;;;;;1.70;1.17;;;17.30;99.90;;;;;;10211860;29;20215;-90
2023/03/26 06:29:19;;;;;;;0.93;0.67;;;17.10;99.90;;;;;;10208776;29;20219;-90
2023/03/26 06:34:30;;;;;;;0.70;0.67;;;17.20;99.90;;;;;;10208757;29;20202;-90
2023/03/26 06:39:33;;;;;;;1.07;0.63;;;17.30;99.90;;;;;;10209064;29;20663;-89
2023/03/26 06:45:08;;;;;;;1.27;0.90;;;17.50;99.90;;;;;;10187487;29;20578;-91
2023/03/26 06:50:31;;;;;;;1.00;0.77;;;17.60;99.90;;;;;;10213255;29;20203;-89
2023/03/26 06:55:53;;;;;;;0.80;0.40;;;17.70;99.90;;;;;;10211406;29;20214;-89
2023/03/26 07:01:16;;;;;;;1.40;0.87;;;17.50;99.90;;;;;;10179474;29;20298;-89
2023/03/26 07:06:37;;;;;;;0.30;0.30;;;17.80;99.90;;;;;;10210451;29;20203;-87
2023/03/26 07:12:00;;;;;;;1.57;0.73;;;17.90;99.90;;;;;;10204400;29;20223;-87
2023/03/26 07:17:21;;;;;;;0.70;0.57;;;18.10;99.90;;;;;;10202069;29;20211;-89
2023/03/26 07:22:30;;;;;;;1.08;0.75;;;17.70;99.90;;;;;;10207394;29;20255;-87
2023/03/26 07:28:11;;;;;;;3.27;0.70;;;17.80;99.90;;;;;;10186315;29;20731;-87
2023/03/26 07:34:02;;;;;;;0.70;0.70;;;17.70;99.90;;;;;;10209635;29;20207;-87
2023/03/26 07:39:35;;;;;;;1.13;0.93;;;17.40;99.90;;;;;;10208504;29;20235;-87
2023/03/26 07:45:17;;;;;;;2.37;0.80;;;17.40;99.90;;;;;;10208882;29;20207;-87
2023/03/26 07:50:39;;;;;;;1.20;0.77;;;17.40;99.90;;;;;;10205122;29;20234;-87
2023/03/26 07:55:50;;;;;;;3.73;0.80;;;17.30;99.90;;;;;;10218272;29;20583;-88
2023/03/26 08:01:36;;;;;;;1.37;1.03;;;17.60;99.90;;;;;;10196404;29;20231;-87
2023/03/26 08:06:45;;;;;;;0.80;0.50;;;17.70;99.90;;;;;;10218435;29;20211;-86
2023/03/26 08:12:40;;;;;;;1.10;0.73;;;17.20;99.90;;;;;;10222454;29;20571;-87
2023/03/26 08:17:49;;;;;;;0.90;0.60;;;16.60;99.90;;;;;;10096712;29;20220;-87
2023/03/26 08:23:26;;;;;;;0.70;0.50;;;16.80;99.90;;;;;;10096578;29;20229;-87
2023/03/26 08:28:39;;;;;;;1.53;0.70;;;17.50;99.90;;;;;;10086762;29;20597;-87
2023/03/26 08:33:42;;;;;;;1.47;0.67;;;17.90;99.90;;;;;;10096699;29;20217;-87
2023/03/26 08:38:45;;;;;;;1.37;0.93;;;17.50;99.90;;;;;;10099737;29;20635;-87
2023/03/26 08:43:57;;;;;;;1.23;0.70;;;17.70;99.90;;;;;;10095311;29;21803;-88
2023/03/26 08:49:08;;;;;;;1.17;0.50;;;17.90;99.90;;;;;;10121729;29;20243;-89
2023/03/26 08:54:30;;;;;;;1.93;1.10;;;17.20;99.90;;;;;;10206664;29;20210;-87
2023/03/26 08:59:33;;;;;;;1.10;0.90;;;16.80;99.90;;;;;;10216596;29;20636;-88
2023/03/26 09:04:45;;;;;;;2.23;0.80;;;16.80;99.90;;;;;;10218273;29;20266;-87
2023/03/26 09:10:02;;;;;;;1.23;0.93;;;16.60;99.90;;;;;;10219736;29;20215;-88
2023/03/26 09:15:26;;;;;;;1.47;1.00;;;16.70;99.90;;;;;;10218491;29;20241;-88
2023/03/26 09:20:37;;;;;;;1.83;1.30;;;16.40;99.90;;;;;;10220480;29;20637;-87
2023/03/26 09:26:03;;;;;;;0.80;0.80;;;16.90;99.90;;;;;;10233784;29;20223;-88
2023/03/26 09:31:06;;;;;;;0.67;0.60;;;17.50;99.90;;;;;;10220935;29;20901;-88
2023/03/26 09:36:20;;;;;;;1.33;0.97;;;17.50;99.90;;;;;;10204003;29;20659;-86
2023/03/26 09:41:35;;;;;;;0.90;0.50;;;17.90;99.90;;;;;;10209758;29;20953;-87
2023/03/26 09:46:46;;;;;;;1.10;0.40;;;17.90;99.90;;;;;;10215675;29;20571;-88
2023/03/26 09:51:56;;;;;;;0.70;0.60;;;18.00;99.90;;;;;;10202691;29;20239;-87
2023/03/26 09:57:28;;;;;;;0.87;0.40;;;17.90;99.90;;;;;;9869255;29;10000212;-87
2023/03/26 10:02:46;;;;;;;1.30;1.00;;;18.00;99.90;;;;;;10211128;29;20223;-86
2023/03/26 10:07:55;;;;;;;1.63;1.03;;;18.00;99.90;;;;;;10231707;29;20202;-87
2023/03/26 10:13:32;;;;;;;1.57;0.80;;;17.50;96.30;;;;;;10214412;29;20184;-86
2023/03/26 10:18:56;;;;;;;1.40;0.37;;;17.40;99.90;;;;;;10169744;29;20229;-87
2023/03/26 10:24:07;;;;;;;1.20;0.70;;;16.80;99.90;;;;;;10171127;29;20192;-87
2023/03/26 10:29:49;;;;;;;0.43;0.43;;;17.20;99.90;;;;;;10161012;29;20184;-87
2023/03/26 10:35:20;;;;;;;0.80;0.77;;;17.00;99.90;;;;;;10131201;29;20200;-87
2023/03/26 10:40:25;;;;;;;2.63;1.40;;;16.80;99.90;;;;;;10095100;29;20229;-86
2023/03/26 10:45:46;;;;;;;0.77;0.77;;;16.40;99.90;;;;;;10167353;29;20217;-87
2023/03/26 10:51:04;;;;;;;1.67;1.20;;;16.90;99.90;;;;;;10149177;29;20238;-86
2023/03/26 10:56:32;;;;;;;2.33;1.10;;;15.90;87.20;;;;;;10257733;29;20206;-84
2023/03/26 11:01:59;;;;;;;1.10;0.63;;;15.60;94.00;;;;;;10263811;28;20253;-83
2023/03/26 11:07:38;;;;;;;0.87;0.57;;;16.10;86.90;;;;;;10258896;29;20234;-90
2023/03/26 11:13:00;;;;;;;1.30;0.77;;;15.90;86.20;;;;;;10259067;29;20202;-91
2023/03/26 11:18:34;;;;;;;1.20;0.40;;;15.80;90.90;;;;;;10267975;29;20175;-91
2023/03/26 11:23:41;;;;;;;3.93;0.93;;;16.10;91.40;;;;;;10148521;29;20225;-90
2023/03/26 11:28:57;;;;;;;2.97;0.70;;;16.40;89.00;;;;;;10132931;29;20193;-90
2023/03/26 11:34:33;;;;;;;1.70;0.53;;;16.20;88.00;;;;;;10148256;29;20201;-91
2023/03/26 11:39:52;;;;;;;0.73;0.60;;;16.60;86.50;;;;;;10132634;29;20231;-91
2023/03/26 11:45:12;;;;;;;2.77;0.90;;;17.00;83.90;;;;;;10147564;29;20230;-92
2023/03/26 11:50:20;;;;;;;1.03;0.50;;;17.10;81.90;;;;;;10147887;29;20225;-91
2023/03/26 11:55:26;;;;;;;1.20;0.50;;;16.80;86.40;;;;;;10131506;29;20192;-90
2023/03/26 12:00:29;;;;;;;1.93;0.80;;;17.00;82.40;;;;;;10250889;29;20226;-91
2023/03/26 12:05:47;;;;;;;1.50;0.70;;;17.10;75.10;;;;;;10267002;29;20175;-90
2023/03/26 12:11:00;;;;;;;0.77;0.77;;;16.80;84.70;;;;;;10266361;29;20222;-92
2023/03/26 12:16:11;;;;;;;0.30;0.30;;;17.20;88.30;;;;;;10266937;29;20222;-91
2023/03/26 12:21:17;;;;;;;0.50;0.50;;;17.70;85.40;;;;;;10266067;29;20566;-91
2023/03/26 12:26:30;;;;;;;1.50;1.23;;;17.70;87.80;;;;;;10265422;29;20202;-91
2023/03/26 12:32:00;;;;;;;1.00;0.53;;;17.50;88.60;;;;;;10267041;29;20171;-91
2023/03/26 12:37:05;;;;;;;1.40;0.70;;;17.50;86.30;;;;;;10256290;29;20223;-91
2023/03/26 12:42:34;;;;;;;1.97;0.60;;;17.20;85.60;;;;;;10265490;29;20210;-93
2023/03/26 12:47:59;;;;;;;0.73;0.50;;;17.40;89.90;;;;;;10281573;28;20183;-91
2023/03/26 12:53:37;;;;;;;0.70;0.60;;;17.20;87.10;;;;;;10265303;29;20222;-92
2023/03/26 12:59:01;;;;;;;2.53;1.00;;;17.30;90.80;;;;;;10264437;28;20245;-92
2023/03/26 13:04:46;;;;;;;0.97;0.50;;;17.30;85.50;;;;;;10264604;29;20219;-92
2023/03/26 13:10:44;;;;;;;1.50;0.63;;;16.90;92.50;;;;;;10144724;29;20182;-91
2023/03/26 13:15:51;;;;;;;2.77;1.07;;;16.90;87.90;;;;;;10144335;29;20231;-91
2023/03/26 13:21:15;;;;;;;1.80;0.77;;;16.50;73.80;;;;;;10128335;29;20232;-91
2023/03/26 13:26:53;;;;;;;1.33;0.63;;;15.30;87.10;;;;;;10128870;29;20193;-92
2023/03/26 13:32:08;;;;;;;1.93;1.20;;;16.00;94.80;;;;;;10147031;29;20225;-91
2023/03/26 13:37:39;;;;;;;0.53;0.50;;;16.50;86.10;;;;;;10142388;29;20211;-89
2023/03/26 13:43:00;;;;;;;0.60;0.40;;;16.90;93.20;;;;;;10248500;29;20243;-92
2023/03/26 13:48:09;;;;;;;0.83;0.57;;;17.30;94.50;;;;;;10265800;29;20214;-91
2023/03/26 13:53:36;;;;;;;1.27;0.70;;;17.50;92.20;;;;;;10265485;29;20183;-92
2023/03/26 13:59:25;;;;;;;3.00;1.43;;;17.60;93.40;;;;;;10266131;29;20210;-92
2023/03/26 14:04:34;;;;;;;2.20;1.00;;;17.50;89.90;;;;;;10146022;29;20249;-92
2023/03/26 14:09:58;;;;;;;0.77;0.67;;;17.40;92.90;;;;;;10130303;29;20222;-91
2023/03/26 14:15:04;;;;;;;1.50;0.87;;;17.20;82.70;;;;;;10147878;29;20249;-87
2023/03/26 14:20:27;;;;;;;8.17;1.93;;;17.20;70.80;;;;;;10145431;29;20235;-91
2023/03/26 14:25:38;;;;;;;14.17;2.10;;;17.20;58.20;;;;;;10142078;29;20193;-92
2023/03/26 14:30:55;;;;;;;10.43;1.57;;;17.00;62.40;;;;;;10144716;29;20193;-90
2023/03/26 14:36:13;;;;;;;10.40;1.60;;;17.10;55.00;;;;;;10202210;29;20213;-91
2023/03/26 14:41:23;;;;;;;4.87;1.33;;;16.70;53.90;;;;;;10276482;28;20210;-91
2023/03/26 14:46:36;;;;;;;3.03;0.80;;;15.50;47.90;;;;;;10264154;29;20230;-91
2023/03/26 14:52:01;;;;;;;6.13;1.60;;;;;;;;;;10278048;28;20212;-92
2023/03/26 14:57:10;;;;;;;5.80;1.43;;;14.20;91.80;;;;;;10302912;28;20212;-92
2023/03/26 15:02:16;;;;;;;5.10;1.30;;;15.60;90.00;;;;;;10302971;28;20237;-92
2023/03/26 15:07:48;;;;;;;5.60;1.80;;;16.30;83.60;;;;;;10272662;28;20186;-91
2023/03/26 15:13:24;;;;;;;3.70;1.33;;;16.60;82.00;;;;;;10243358;29;20221;-92
2023/03/26 15:19:00;;;;;;;5.43;1.47;;;16.90;75.90;;;;;;10262516;29;20187;-91
2023/03/26 15:24:30;;;;;;;3.37;1.27;;;16.90;73.90;;;;;;10263542;29;20234;-90
2023/03/26 15:29:51;;;;;;;4.03;1.73;;;16.90;72.20;;;;;;10263918;29;20186;-92
2023/03/26 15:35:15;;;;;;;4.10;0.97;;;17.10;74.40;;;;;;10263929;29;20204;-89
2023/03/26 15:40:45;;;;;;;3.77;1.23;;;16.90;75.80;;;;;;10263394;29;20247;-92
2023/03/26 15:46:06;;;;;;;3.17;1.17;;;16.60;73.90;;;;;;10246117;29;20214;-91
2023/03/26 15:51:32;;;;;;;4.03;1.67;;;16.70;79.20;;;;;;10262925;29;20190;-92
2023/03/26 15:57:18;;;;;;;4.37;1.40;;;16.90;76.60;;;;;;10262385;29;20227;-91
2023/03/26 16:02:40;;;;;;;4.20;1.43;;;16.70;76.90;;;;;;10264445;29;20215;-92
2023/03/26 16:08:08;;;;;;;8.03;1.27;;;16.60;72.80;;;;;;10269060;29;20211;-92
2023/03/26 16:13:22;;;;;;;3.53;1.47;;;16.30;74.50;;;;;;10243538;29;20218;-91
2023/03/26 16:18:47;;;;;;;3.27;1.20;;;16.10;80.80;;;;;;10227982;29;20207;-93
2023/03/26 16:24:12;;;;;;;4.83;1.20;;;16.00;82.10;;;;;;10229816;29;20223;-92
2023/03/26 16:29:24;;;;;;;2.67;1.30;;;16.20;80.50;;;;;;10228433;29;20274;-92
2023/03/26 16:34:29;;;;;;;4.23;1.40;;;16.30;79.60;;;;;;10219644;29;20227;-93
2023/03/26 16:39:41;;;;;;;5.87;2.00;;;16.20;77.00;;;;;;10217690;29;20223;-92
2023/03/26 16:45:08;;;;;;;5.13;2.27;;;15.40;77.90;;;;;;10223762;29;20231;-93
2023/03/26 16:50:55;;;;;;;3.50;2.10;;;14.40;71.30;;;;;;10224752;29;20274;-92
2023/03/26 16:56:05;;;;;;;4.43;1.97;;;13.90;77.40;;;;;;10101774;29;20213;-93
2023/03/26 17:01:25;;;;;;;9.43;3.33;;;13.90;85.20;;;;;;10129035;29;20232;-92
2023/03/26 17:06:49;;;;;;;3.50;1.87;;;13.60;88.70;;;;;;10094988;29;20241;-91
2023/03/26 17:12:03;;;;;;;4.30;1.40;;;14.10;93.50;;;;;;10106070;29;20209;-93
2023/03/26 17:17:29;;;;;;;3.47;1.80;;;14.30;94.10;;;;;;10112637;29;20229;-92
2023/03/26 17:22:46;;;;;;;3.97;1.33;;;12.30;84.00;;;;;;10101998;29;20228;-93
2023/03/26 17:28:36;;;;;;;3.73;2.20;;;12.30;98.00;;;;;;10100450;29;20205;-93
2023/03/26 17:33:39;;;;;;;6.03;1.97;;;13.00;99.90;;;;;;10202880;29;20247;-93
2023/03/26 17:38:47;;;;;;;3.13;2.43;;;13.40;99.90;;;;;;10222216;29;20255;-93
2023/03/26 17:43:51;;;;;;;3.17;1.97;;;13.10;96.90;;;;;;10226701;29;20215;-93
2023/03/26 17:49:21;;;;;;;3.67;1.90;;;12.60;99.90;;;;;;10219542;29;20261;-93
2023/03/26 17:54:27;;;;;;;5.23;2.33;;;12.40;99.90;;;;;;10213850;29;20256;-94
2023/03/26 17:59:31;;;;;;;6.23;5.20;;;10.20;90.70;;;;;;10224250;29;20209;-93
2023/03/26 18:04:37;;;;;;;23.30;13.90;;;10.00;90.80;;;;;;10221751;29;20283;-94
2023/03/26 18:10:05;;;;;;;29.20;14.87;;;8.50;96.00;;;;;;10222908;29;20254;-94
2023/03/26 18:15:35;;;;;;;14.03;8.17;;;7.50;99.90;;;;;;10222971;29;20198;-93
2023/03/26 18:20:41;;;;;;;9.07;6.50;;;6.50;99.90;;;;;;10208655;29;20632;-94
2023/03/26 18:25:51;;;;;;;7.90;7.00;;;6.40;99.90;;;;;;10216840;29;20323;-93
2023/03/26 18:30:53;;;;;;;8.57;7.77;;;6.00;99.90;;;;;;10218572;29;20878;-94
2023/03/26 18:35:57;;;;;;;8.90;6.60;;;5.80;99.90;;;;;;10219309;29;20203;-93
2023/03/26 18:40:59;;;;;;;4.80;2.57;;;5.50;99.90;;;;;;10219739;29;20219;-93
2023/03/26 18:46:02;;;;;;;3.20;2.90;;;5.60;99.90;;;;;;10218666;29;20204;-95
2023/03/26 18:51:06;;;;;;;4.10;2.53;;;5.90;99.90;;;;;;10239448;29;20626;-95
2023/03/26 18:56:22;;;;;;;6.63;4.20;;;6.20;99.90;;;;;;10251977;28;20221;-93
2023/03/26 19:01:31;;;;;;;10.67;6.10;;;6.50;99.90;;;;;;10245636;29;20285;-93
2023/03/26 19:06:39;;;;;;;11.17;7.37;;;6.80;99.90;;;;;;10206357;29;20226;-94
2023/03/26 19:11:44;;;;;;;9.97;7.07;;;6.60;99.90;;;;;;10208375;29;20250;-92
2023/03/26 19:16:58;;;;;;;12.17;7.57;;;5.60;99.90;;;;;;10207450;29;20369;-92
2023/03/26 19:22:03;;;;;;;20.47;9.83;;;5.50;99.90;;;;;;10207788;29;20250;-91
2023/03/26 19:27:06;;;;;;;16.87;10.97;;;5.40;99.90;;;;;;10206989;29;20282;-89
2023/03/26 19:32:18;;;;;;;32.10;17.20;;;5.30;99.90;;;;;;10191566;29;20322;-88
2023/03/26 19:37:23;;;;;;;46.43;24.97;;;5.20;99.90;;;;;;10208958;28;20270;-86
2023/03/26 19:42:30;;;;;;;60.47;35.67;;;4.50;99.90;;;;;;10212145;29;20254;-89
2023/03/26 19:47:47;;;;;;;81.53;48.27;;;4.40;99.90;;;;;;10213068;29;20223;-88
2023/03/26 19:53:17;;;;;;;50.10;29.20;;;4.30;99.90;;;;;;10212339;29;20195;-88
2023/03/26 19:58:20;;;;;;;44.87;25.87;;;4.10;99.90;;;;;;10217278;29;20302;-87
2023/03/26 20:03:29;;;;;;;55.97;33.13;;;3.70;99.90;;;;;;10215264;29;20492;-86
2023/03/26 20:08:32;;;;;;;48.70;29.47;;;3.40;99.90;;;;;;10208092;29;20207;-89
2023/03/26 20:13:34;;;;;;;37.17;22.17;;;3.20;99.90;;;;;;10212519;29;20238;-87
2023/03/26 20:18:37;;;;;;;33.30;19.50;;;3.10;99.90;;;;;;10212089;29;20238;-86
2023/03/26 20:23:41;;;;;;;29.30;19.40;;;2.90;99.90;;;;;;10211012;29;20270;-87
2023/03/26 20:28:44;;;;;;;30.10;18.73;;;2.90;99.90;;;;;;10214097;29;20231;-87
2023/03/26 20:33:55;;;;;;;53.10;31.23;;;2.70;99.90;;;;;;10212843;29;20203;-91
2023/03/26 20:38:58;;;;;;;32.03;12.93;;;2.40;99.90;;;;;;10210157;29;20270;-81
2023/03/26 20:44:02;;;;;;;32.07;18.80;;;3.20;99.90;;;;;;10208417;29;20266;-82
2023/03/26 20:49:05;;;;;;;28.63;16.70;;;4.60;99.90;;;;;;10210028;29;20279;-82
2023/03/26 20:54:20;;;;;;;52.00;26.43;;;4.80;99.90;;;;;;10210898;29;20233;-82
2023/03/26 20:59:25;;;;;;;41.70;23.63;;;4.60;99.90;;;;;;10208423;29;20237;-82
2023/03/26 21:04:28;;;;;;;52.80;22.37;;;4.10;99.90;;;;;;10207841;29;20715;-82
2023/03/26 21:09:34;;;;;;;57.93;24.43;;;4.20;99.90;;;;;;10209046;29;20293;-82
2023/03/26 21:14:40;;;;;;;74.07;33.30;;;4.40;99.90;;;;;;10209201;29;20242;-82
2023/03/26 21:19:44;;;;;;;79.83;38.30;;;4.10;99.90;;;;;;10208524;29;20237;-81
2023/03/26 21:25:11;;;;;;;124.67;46.90;;;3.60;99.90;;;;;;10208552;29;20313;-82
2023/03/26 21:30:15;;;;;;;54.73;23.13;;;3.40;99.90;;;;;;10205348;29;20230;-82
2023/03/26 21:35:18;;;;;;;43.73;19.33;;;4.00;99.90;;;;;;10206374;29;20238;-81
2023/03/26 21:40:21;;;;;;;34.10;19.80;;;4.60;99.90;;;;;;10207407;29;20347;-81
2023/03/26 21:45:25;;;;;;;44.73;25.03;;;5.00;99.90;;;;;;10207618;29;20298;-82
2023/03/26 21:50:28;;;;;;;40.17;16.90;;;5.20;99.90;;;;;;10207971;29;20241;-82
2023/03/26 21:55:40;;;;;;;25.43;14.47;;;5.20;99.90;;;;;;10200663;29;20281;-81
2023/03/26 22:00:53;;;;;;;17.00;10.03;;;5.10;99.90;;;;;;10207351;29;20230;-81
2023/03/26 22:06:04;;;;;;;14.07;8.37;;;5.00;99.90;;;;;;10189201;29;20267;-82
2023/03/26 22:11:10;;;;;;;11.67;8.13;;;5.10;99.90;;;;;;10220403;29;20695;-81
2023/03/26 22:16:15;;;;;;;16.23;7.47;;;5.10;99.90;;;;;;10205780;29;20290;-81
2023/03/26 22:21:19;;;;;;;15.67;6.67;;;5.10;99.90;;;;;;10197806;29;20606;-81
2023/03/26 22:26:24;;;;;;;12.17;7.53;;;5.10;99.90;;;;;;10205596;29;20667;-82
2023/03/26 22:31:28;;;;;;;15.83;6.93;;;5.10;99.90;;;;;;10202744;29;20243;-82
2023/03/26 22:36:31;;;;;;;14.77;6.83;;;5.00;99.90;;;;;;10206874;29;20258;-81
2023/03/26 22:41:33;;;;;;;10.57;6.80;;;5.00;99.90;;;;;;10206056;29;20238;-81
2023/03/26 22:46:36;;;;;;;16.00;6.53;;;4.90;99.90;;;;;;10205276;29;20238;-82
2023/03/26 22:51:39;;;;;;;14.53;6.47;;;4.80;99.90;;;;;;10205104;29;20290;-82
2023/03/26 22:56:42;;;;;;;12.07;6.20;;;4.50;99.90;;;;;;10196854;29;20306;-81
2023/03/26 23:01:45;;;;;;;12.67;6.70;;;4.30;99.90;;;;;;10189261;29;20234;-81
2023/03/26 23:06:47;;;;;;;11.27;5.93;;;4.60;99.90;;;;;;10206341;29;20230;-82
2023/03/26 23:11:50;;;;;;;13.80;5.93;;;4.60;99.90;;;;;;10193498;29;20247;-82
2023/03/26 23:16:54;;;;;;;10.47;5.27;;;4.60;99.90;;;;;;10210969;29;20238;-82
2023/03/26 23:21:56;;;;;;;9.80;5.07;;;4.70;99.90;;;;;;10214209;29;20238;-81
2023/03/26 23:26:59;;;;;;;13.43;5.90;;;4.50;99.90;;;;;;10213783;29;20242;-81
2023/03/26 23:32:02;;;;;;;8.73;4.50;;;4.50;99.90;;;;;;10211896;29;20238;-82
2023/03/26 23:37:24;;;;;;;11.63;4.90;;;4.50;99.90;;;;;;10213627;29;20325;-82
2023/03/26 23:42:27;;;;;;;11.40;5.43;;;4.20;99.90;;;;;;10212899;29;20278;-82
2023/03/26 23:47:33;;;;;;;8.47;5.00;;;3.70;99.90;;;;;;10213509;29;20262;-82
2023/03/26 23:52:36;;;;;;;15.70;7.07;;;3.80;99.90;;;;;;10213082;29;20814;-81
2023/03/26 23:57:39;;;;;;;15.83;6.73;;;3.80;99.90;;;;;;10212697;29;20311;-82
